createdAt,value
2017-03-25T00:00:47.870Z,95.6
2017-03-25T00:01:50.209Z,95.6
2017-03-25T00:02:52.543Z,95.6
2017-03-25T00:03:55.385Z,95.6
2017-03-25T00:04:57.591Z,95.6
2017-03-25T00:06:00.684Z,95.6
2017-03-25T00:07:03.024Z,95.6
2017-03-25T00:08:05.363Z,95.6
2017-03-25T00:09:08.208Z,95.6
2017-03-25T00:10:10.546Z,95.6
2017-03-25T00:11:13.636Z,95.6
2017-03-25T00:12:15.838Z,95.6
2017-03-25T00:14:21.084Z,95.6
2017-03-25T00:14:51.711Z,95.6
2017-03-25T00:15:23.718Z,95.6
2017-03-25T00:16:29.280Z,95.6
2017-03-25T00:17:28.598Z,95.6
2017-03-25T00:18:31.438Z,95.6
2017-03-25T00:19:33.776Z,95.6
2017-03-25T00:20:36.620Z,95.6
2017-03-25T00:21:38.963Z,95.6
2017-03-25T00:22:41.670Z,95.6
2017-03-25T00:23:44.509Z,95.6
2017-03-25T00:24:46.847Z,95.6
2017-03-25T00:25:49.691Z,95.6
2017-03-25T00:26:52.025Z,95.6
2017-03-25T00:27:54.860Z,95.6
2017-03-25T00:28:57.202Z,95.6
2017-03-25T00:30:00.043Z,95.6
2017-03-25T00:31:02.382Z,95.6
2017-03-25T00:33:07.991Z,95.6
2017-03-25T00:34:10.326Z,95.6
2017-03-25T00:35:12.663Z,95.6
2017-03-25T00:36:15.371Z,95.6
2017-03-25T00:37:18.075Z,95.6
2017-03-25T00:38:20.825Z,95.6
2017-03-25T00:39:23.161Z,95.6
2017-03-25T00:40:25.999Z,95.6
2017-03-25T00:41:28.335Z,95.6
2017-03-25T00:42:31.178Z,95.6
2017-03-25T00:43:33.864Z,95.6
2017-03-25T00:44:36.211Z,95.6
2017-03-25T00:45:38.548Z,95.6
2017-03-25T00:46:41.391Z,95.6
2017-03-25T00:47:43.733Z,95.6
2017-03-25T00:48:46.980Z,95.6
2017-03-25T00:49:49.321Z,95.6
2017-03-25T00:50:51.520Z,95.6
2017-03-25T00:51:54.367Z,95.6
2017-03-25T00:52:56.701Z,95.6
2017-03-25T00:53:59.844Z,95.6
2017-03-25T00:55:02.186Z,95.6
2017-03-25T00:56:04.522Z,95.6
2017-03-25T00:57:07.368Z,95.6
2017-03-25T00:58:09.576Z,95.6
2017-03-25T00:59:12.719Z,95.6
2017-03-25T01:00:14.937Z,95.6
2017-03-25T01:01:17.275Z,95.6
2017-03-25T01:02:20.115Z,95.6
2017-03-25T01:03:22.450Z,95.6
2017-03-25T01:04:25.591Z,95.6
2017-03-25T01:05:27.932Z,95.6
2017-03-25T01:06:30.275Z,95.6
2017-03-25T01:07:33.112Z,95.7
2017-03-25T01:08:35.817Z,95.7
2017-03-25T01:09:38.461Z,95.7
2017-03-25T01:10:40.803Z,95.7
2017-03-25T01:11:43.141Z,95.7
2017-03-25T01:12:45.987Z,95.7
2017-03-25T01:13:48.330Z,95.7
2017-03-25T01:14:51.472Z,95.7
2017-03-25T01:15:53.815Z,95.7
2017-03-25T01:16:56.155Z,95.7
2017-03-25T01:17:58.994Z,95.7
2017-03-25T01:19:01.329Z,95.7
2017-03-25T01:20:04.475Z,95.7
2017-03-25T01:21:06.811Z,95.7
2017-03-25T01:22:09.150Z,95.7
2017-03-25T01:23:12.006Z,95.7
2017-03-25T01:25:17.002Z,95.7
2017-03-25T01:26:19.706Z,95.7
2017-03-25T01:27:22.044Z,95.7
2017-03-25T01:28:24.753Z,95.7
2017-03-25T01:29:26.951Z,95.7
2017-03-25T01:30:30.040Z,95.7
2017-03-25T01:31:32.419Z,95.7
2017-03-25T01:32:35.129Z,95.7
2017-03-25T01:33:37.329Z,95.7
2017-03-25T01:34:40.038Z,95.7
2017-03-25T01:35:43.133Z,95.7
2017-03-25T01:36:45.470Z,95.7
2017-03-25T01:37:47.804Z,95.7
2017-03-25T01:38:50.645Z,95.7
2017-03-25T01:39:52.979Z,95.7
2017-03-25T01:40:56.125Z,95.7
2017-03-25T01:41:57.963Z,95.7
2017-03-25T01:43:00.805Z,95.7
2017-03-25T01:44:03.514Z,95.7
2017-03-25T01:45:05.856Z,95.7
2017-03-25T01:46:09.003Z,95.7
2017-03-25T01:47:10.841Z,95.7
2017-03-25T01:48:13.681Z,95.7
2017-03-25T01:49:16.023Z,95.7
2017-03-25T01:50:18.865Z,95.7
2017-03-25T01:51:21.504Z,95.7
2017-03-25T01:52:23.841Z,95.7
2017-03-25T01:53:26.688Z,95.7
2017-03-25T01:54:29.032Z,95.7
2017-03-25T01:55:31.873Z,95.7
2017-03-25T01:56:34.516Z,95.7
2017-03-25T01:57:36.851Z,95.7
2017-03-25T01:58:39.555Z,95.7
2017-03-25T01:59:41.892Z,95.7
2017-03-25T02:00:44.729Z,95.7
2017-03-25T02:01:47.366Z,95.7
2017-03-25T02:02:49.704Z,95.7
2017-03-25T02:03:52.038Z,95.7
2017-03-25T02:04:54.878Z,95.7
2017-03-25T02:05:57.219Z,95.7
2017-03-25T02:07:00.362Z,95.7
2017-03-25T02:08:02.697Z,95.7
2017-03-25T02:10:07.948Z,95.7
2017-03-25T02:12:13.001Z,95.7
2017-03-25T02:13:15.336Z,95.7
2017-03-25T02:14:18.040Z,95.7
2017-03-25T02:15:20.379Z,95.7
2017-03-25T02:16:23.219Z,95.7
2017-03-25T02:17:25.812Z,95.7
2017-03-25T02:18:28.150Z,95.7
2017-03-25T02:19:30.996Z,95.7
2017-03-25T02:20:33.334Z,95.7
2017-03-25T02:21:36.101Z,95.7
2017-03-25T02:22:38.740Z,95.7
2017-03-25T02:23:41.077Z,95.7
2017-03-25T02:24:43.921Z,95.7
2017-03-25T02:25:46.255Z,95.6
2017-03-25T02:26:49.097Z,95.7
2017-03-25T02:27:51.685Z,95.7
2017-03-25T02:28:53.887Z,95.7
2017-03-25T02:29:56.728Z,95.6
2017-03-25T02:30:59.067Z,95.6
2017-03-25T02:32:01.911Z,95.7
2017-03-25T02:33:04.503Z,95.7
2017-03-25T02:34:06.850Z,95.7
2017-03-25T02:35:09.556Z,95.7
2017-03-25T02:36:11.928Z,95.7
2017-03-25T02:37:14.777Z,95.7
2017-03-25T02:38:17.322Z,95.7
2017-03-25T02:39:19.661Z,95.7
2017-03-25T02:40:22.372Z,95.7
2017-03-25T02:41:24.709Z,95.7
2017-03-25T02:42:27.282Z,95.6
2017-03-25T02:43:30.375Z,95.7
2017-03-25T02:44:32.719Z,95.7
2017-03-25T02:45:35.064Z,95.7
2017-03-25T02:46:37.900Z,95.7
2017-03-25T02:47:40.235Z,95.7
2017-03-25T02:48:43.280Z,95.7
2017-03-25T02:49:45.620Z,95.7
2017-03-25T02:50:48.027Z,95.7
2017-03-25T02:51:50.364Z,95.7
2017-03-25T02:52:53.207Z,95.7
2017-03-25T02:53:55.798Z,95.7
2017-03-25T02:54:58.145Z,95.7
2017-03-25T02:56:00.987Z,95.7
2017-03-25T02:57:03.325Z,95.7
2017-03-25T02:58:05.967Z,95.7
2017-03-25T02:59:08.559Z,95.7
2017-03-25T03:00:10.770Z,95.7
2017-03-25T03:01:13.612Z,95.7
2017-03-25T03:02:16.321Z,95.7
2017-03-25T03:03:18.898Z,95.7
2017-03-25T03:04:21.493Z,95.6
2017-03-25T03:05:23.838Z,95.6
2017-03-25T03:06:26.683Z,95.6
2017-03-25T03:07:29.019Z,95.6
2017-03-25T03:08:31.858Z,95.6
2017-03-25T03:10:36.859Z,95.6
2017-03-25T03:11:39.196Z,95.6
2017-03-25T03:12:42.035Z,95.6
2017-03-25T03:13:44.376Z,95.6
2017-03-25T03:14:47.221Z,95.6
2017-03-25T03:15:49.814Z,95.6
2017-03-25T03:16:52.151Z,95.7
2017-03-25T03:17:54.491Z,95.7
2017-03-25T03:18:57.342Z,95.7
2017-03-25T03:19:59.682Z,95.7
2017-03-25T03:21:02.786Z,95.7
2017-03-25T03:22:05.121Z,95.7
2017-03-25T03:23:07.333Z,95.6
2017-03-25T03:24:10.182Z,95.6
2017-03-25T03:25:12.529Z,95.6
2017-03-25T03:26:15.670Z,95.6
2017-03-25T03:27:17.508Z,95.6
2017-03-25T03:28:20.223Z,95.6
2017-03-25T03:29:23.072Z,95.6
2017-03-25T03:30:25.416Z,95.6
2017-03-25T03:31:28.054Z,95.6
2017-03-25T03:32:30.461Z,95.6
2017-03-25T03:33:33.311Z,95.6
2017-03-25T03:34:35.657Z,95.6
2017-03-25T03:35:38.231Z,95.6
2017-03-25T03:36:40.825Z,95.6
2017-03-25T03:37:43.163Z,95.6
2017-03-25T03:38:46.006Z,95.6
2017-03-25T03:39:48.346Z,95.6
2017-03-25T03:40:51.190Z,95.6
2017-03-25T03:41:53.781Z,95.6
2017-03-25T03:42:56.129Z,95.6
2017-03-25T03:43:58.478Z,95.6
2017-03-25T03:45:01.325Z,95.6
2017-03-25T03:46:03.707Z,95.6
2017-03-25T03:47:06.805Z,95.6
2017-03-25T03:48:08.655Z,95.6
2017-03-25T03:49:11.507Z,95.6
2017-03-25T03:50:13.852Z,95.6
2017-03-25T03:51:16.704Z,95.6
2017-03-25T03:52:19.297Z,95.6
2017-03-25T03:53:21.640Z,95.6
2017-03-25T03:54:23.985Z,95.6
2017-03-25T03:55:26.832Z,95.6
2017-03-25T03:56:29.179Z,95.6
2017-03-25T03:57:32.141Z,95.6
2017-03-25T03:58:34.494Z,95.6
2017-03-25T03:59:36.840Z,95.7
2017-03-25T04:00:39.699Z,95.7
2017-03-25T04:01:42.050Z,95.7
2017-03-25T04:02:44.649Z,95.7
2017-03-25T04:03:46.993Z,95.7
2017-03-25T04:04:49.835Z,95.7
2017-03-25T04:05:52.281Z,95.7
2017-03-25T04:06:54.629Z,95.7
2017-03-25T04:07:57.593Z,95.7
2017-03-25T04:08:59.939Z,95.7
2017-03-25T04:10:02.280Z,95.7
2017-03-25T04:11:05.120Z,95.7
2017-03-25T04:13:10.619Z,95.7
2017-03-25T04:14:12.963Z,95.7
2017-03-25T04:15:15.314Z,95.7
2017-03-25T04:16:17.660Z,95.7
2017-03-25T04:17:20.505Z,95.7
2017-03-25T04:18:23.166Z,95.7
2017-03-25T04:19:25.511Z,95.7
2017-03-25T04:20:27.856Z,95.7
2017-03-25T04:21:30.567Z,95.7
2017-03-25T04:22:33.423Z,95.7
2017-03-25T04:23:36.075Z,95.7
2017-03-25T04:24:38.280Z,95.6
2017-03-25T04:25:40.673Z,95.7
2017-03-25T04:26:43.515Z,95.7
2017-03-25T04:27:45.862Z,95.7
2017-03-25T04:28:48.962Z,95.7
2017-03-25T04:29:50.806Z,95.6
2017-03-25T04:30:53.517Z,95.7
2017-03-25T04:31:56.362Z,95.6
2017-03-25T04:32:58.705Z,95.6
2017-03-25T04:35:04.074Z,95.6
2017-03-25T04:36:06.423Z,95.6
2017-03-25T04:37:08.759Z,95.6
2017-03-25T04:38:11.608Z,95.6
2017-03-25T04:39:13.950Z,95.7
2017-03-25T04:40:16.918Z,95.7
2017-03-25T04:41:19.257Z,95.7
2017-03-25T04:42:21.605Z,95.7
2017-03-25T04:43:24.475Z,95.7
2017-03-25T04:44:26.545Z,95.7
2017-03-25T04:45:29.648Z,95.7
2017-03-25T04:46:31.990Z,95.6
2017-03-25T04:47:34.330Z,95.7
2017-03-25T04:48:37.183Z,95.7
2017-03-25T04:49:39.523Z,95.7
2017-03-25T04:50:42.117Z,95.7
2017-03-25T04:51:44.464Z,95.7
2017-03-25T04:52:47.310Z,95.7
2017-03-25T04:53:49.658Z,95.7
2017-03-25T04:54:52.507Z,95.7
2017-03-25T04:55:55.100Z,95.7
2017-03-25T04:56:57.441Z,95.7
2017-03-25T04:57:59.836Z,95.7
2017-03-25T04:59:02.680Z,95.7
2017-03-25T05:00:05.027Z,95.7
2017-03-25T05:01:07.623Z,95.7
2017-03-25T05:02:09.960Z,95.7
2017-03-25T05:03:12.818Z,95.7
2017-03-25T05:06:20.781Z,95.7
2017-03-25T05:07:23.121Z,95.7
2017-03-25T05:08:25.465Z,95.7
2017-03-25T05:09:27.807Z,95.7
2017-03-25T05:10:30.660Z,95.7
2017-03-25T05:11:33.251Z,95.7
2017-03-25T05:12:35.466Z,95.7
2017-03-25T05:13:38.314Z,95.7
2017-03-25T05:14:40.524Z,95.7
2017-03-25T05:15:43.411Z,95.7
2017-03-25T05:16:45.999Z,95.7
2017-03-25T05:17:48.345Z,95.7
2017-03-25T05:18:51.194Z,95.7
2017-03-25T05:19:53.412Z,95.7
2017-03-25T05:20:56.129Z,95.7
2017-03-25T05:21:58.721Z,95.7
2017-03-25T05:23:01.062Z,95.7
2017-03-25T05:24:03.913Z,95.7
2017-03-25T05:26:08.662Z,95.7
2017-03-25T05:27:11.754Z,95.7
2017-03-25T05:28:14.100Z,95.7
2017-03-25T05:29:16.454Z,95.7
2017-03-25T05:30:18.793Z,95.7
2017-03-25T05:31:21.640Z,95.7
2017-03-25T05:32:24.229Z,95.7
2017-03-25T05:33:26.569Z,95.7
2017-03-25T05:34:29.417Z,95.7
2017-03-25T05:35:31.757Z,95.7
2017-03-25T05:36:34.092Z,95.7
2017-03-25T05:37:37.238Z,95.7
2017-03-25T05:38:39.580Z,95.7
2017-03-25T05:39:41.924Z,95.7
2017-03-25T05:40:44.267Z,95.8
2017-03-25T05:41:47.116Z,95.8
2017-03-25T05:42:49.711Z,95.8
2017-03-25T05:43:52.116Z,95.8
2017-03-25T05:44:54.457Z,95.8
2017-03-25T05:45:57.314Z,95.8
2017-03-25T05:46:59.653Z,95.8
2017-03-25T05:48:02.752Z,95.8
2017-03-25T05:49:05.094Z,95.8
2017-03-25T05:50:07.306Z,95.8
2017-03-25T05:51:10.016Z,95.7
2017-03-25T05:53:15.515Z,95.8
2017-03-25T05:54:17.414Z,95.8
2017-03-25T05:55:20.259Z,95.7
2017-03-25T05:56:22.596Z,95.7
2017-03-25T05:57:25.307Z,95.8
2017-03-25T05:58:27.898Z,95.8
2017-03-25T05:59:30.106Z,95.8
2017-03-25T06:00:32.696Z,95.8
2017-03-25T06:01:35.540Z,95.8
2017-03-25T06:02:37.885Z,95.8
2017-03-25T06:03:40.988Z,95.8
2017-03-25T06:04:43.336Z,95.8
2017-03-25T06:05:45.674Z,95.8
2017-03-25T06:06:48.021Z,95.8
2017-03-25T06:07:50.863Z,95.8
2017-03-25T06:08:53.332Z,95.8
2017-03-25T06:09:55.685Z,95.8
2017-03-25T06:10:58.538Z,95.8
2017-03-25T06:12:00.880Z,95.8
2017-03-25T06:13:03.726Z,95.7
2017-03-25T06:14:06.323Z,95.7
2017-03-25T06:15:08.660Z,95.7
2017-03-25T06:16:11.061Z,95.7
2017-03-25T06:17:13.917Z,95.7
2017-03-25T06:18:16.264Z,95.7
2017-03-25T06:19:19.416Z,95.7
2017-03-25T06:20:21.251Z,95.7
2017-03-25T06:21:24.091Z,95.7
2017-03-25T06:22:26.428Z,95.7
2017-03-25T06:23:29.138Z,95.7
2017-03-25T06:24:32.526Z,95.7
2017-03-25T06:25:34.364Z,95.7
2017-03-25T06:26:36.569Z,95.7
2017-03-25T06:27:39.467Z,95.7
2017-03-25T06:28:41.804Z,95.7
2017-03-25T06:29:44.900Z,95.7
2017-03-25T06:30:47.242Z,95.8
2017-03-25T06:31:49.445Z,95.8
2017-03-25T06:32:52.161Z,95.8
2017-03-25T06:33:54.504Z,95.8
2017-03-25T06:34:57.658Z,95.7
2017-03-25T06:35:59.992Z,95.8
2017-03-25T06:37:02.201Z,95.8
2017-03-25T06:38:05.046Z,95.8
2017-03-25T06:39:07.397Z,95.8
2017-03-25T06:40:10.494Z,95.8
2017-03-25T06:41:12.701Z,95.8
2017-03-25T06:42:15.044Z,95.7
2017-03-25T06:43:17.888Z,95.7
2017-03-25T06:44:20.103Z,95.8
2017-03-25T06:45:23.199Z,95.8
2017-03-25T06:46:25.539Z,95.8
2017-03-25T06:47:27.881Z,95.8
2017-03-25T06:48:30.734Z,95.8
2017-03-25T06:49:33.078Z,95.8
2017-03-25T06:50:35.672Z,95.8
2017-03-25T06:51:38.013Z,95.7
2017-03-25T06:52:40.727Z,95.7
2017-03-25T06:53:43.572Z,95.7
2017-03-25T06:54:45.919Z,95.7
2017-03-25T06:55:48.373Z,95.7
2017-03-25T06:56:51.214Z,95.7
2017-03-25T06:57:53.420Z,95.7
2017-03-25T06:58:56.268Z,95.7
2017-03-25T06:59:58.977Z,95.7
2017-03-25T07:01:01.568Z,95.7
2017-03-25T07:02:03.911Z,95.7
2017-03-25T07:03:06.490Z,95.7
2017-03-25T07:04:08.836Z,95.7
2017-03-25T07:05:11.685Z,95.7
2017-03-25T07:06:14.336Z,95.7
2017-03-25T07:07:16.680Z,95.7
2017-03-25T07:08:19.524Z,95.7
2017-03-25T07:09:21.869Z,95.7
2017-03-25T07:10:24.214Z,95.7
2017-03-25T07:11:27.312Z,95.7
2017-03-25T07:12:29.513Z,95.7
2017-03-25T07:13:32.220Z,95.7
2017-03-25T07:14:34.567Z,95.7
2017-03-25T07:15:37.412Z,95.6
2017-03-25T07:16:40.423Z,95.6
2017-03-25T07:17:43.203Z,95.6
2017-03-25T07:18:45.044Z,95.6
2017-03-25T07:19:47.389Z,95.6
2017-03-25T07:20:50.236Z,95.6
2017-03-25T07:21:52.888Z,95.5
2017-03-25T07:22:55.231Z,95.5
2017-03-25T07:23:58.078Z,95.5
2017-03-25T07:25:00.428Z,95.5
2017-03-25T07:26:03.135Z,95.5
2017-03-25T07:27:05.782Z,95.5
2017-03-25T07:29:11.035Z,95.5
2017-03-25T07:30:13.378Z,95.4
2017-03-25T07:31:15.719Z,95.4
2017-03-25T07:32:18.819Z,95.4
2017-03-25T07:33:21.161Z,95.4
2017-03-25T07:34:23.515Z,95.4
2017-03-25T07:35:26.420Z,95.3
2017-03-25T07:36:28.770Z,95.3
2017-03-25T07:37:31.861Z,95.3
2017-03-25T07:38:34.204Z,95.3
2017-03-25T07:39:36.547Z,95.3
2017-03-25T07:40:39.449Z,95.2
2017-03-25T07:41:41.787Z,95.2
2017-03-25T07:42:44.932Z,95.2
2017-03-25T07:43:46.783Z,95.2
2017-03-25T07:44:49.493Z,95.1
2017-03-25T07:45:52.897Z,95.1
2017-03-25T07:46:54.735Z,95
2017-03-25T07:47:57.839Z,95
2017-03-25T07:49:00.192Z,94.9
2017-03-25T07:50:02.534Z,94.8
2017-03-25T07:51:04.942Z,94.8
2017-03-25T07:52:07.792Z,94.7
2017-03-25T07:53:10.384Z,94.7
2017-03-25T07:54:12.729Z,94.6
2017-03-25T07:55:15.572Z,94.5
2017-03-25T07:56:17.949Z,94.5
2017-03-25T07:57:20.655Z,94.4
2017-03-25T07:58:23.656Z,94.3
2017-03-25T07:59:25.999Z,94.3
2017-03-25T08:00:28.346Z,94.2
2017-03-25T08:02:33.462Z,94
2017-03-25T08:03:36.568Z,93.9
2017-03-25T08:04:38.918Z,93.8
2017-03-25T08:05:41.762Z,93.7
2017-03-25T08:06:44.109Z,93.5
2017-03-25T08:07:46.953Z,93.3
2017-03-25T08:08:49.610Z,93.2
2017-03-25T08:09:51.956Z,93
2017-03-25T08:10:54.800Z,92.7
2017-03-25T08:11:57.139Z,92.5
2017-03-25T08:12:59.989Z,92.3
2017-03-25T08:14:02.591Z,92.1
2017-03-25T08:15:04.940Z,91.9
2017-03-25T08:16:07.781Z,91.7
2017-03-25T08:17:10.120Z,91.4
2017-03-25T08:18:12.967Z,91.1
2017-03-25T08:19:16.066Z,91
2017-03-25T08:20:18.000Z,90.8
2017-03-25T08:21:20.850Z,90.8
2017-03-25T08:22:23.692Z,90.8
2017-03-25T08:23:26.082Z,90.9
2017-03-25T08:24:29.183Z,91
2017-03-25T08:25:31.524Z,91
2017-03-25T08:27:36.773Z,91.1
2017-03-25T08:28:39.128Z,91
2017-03-25T08:30:44.630Z,91.2
2017-03-25T08:31:46.967Z,91.2
2017-03-25T08:32:49.810Z,91.3
2017-03-25T08:33:52.146Z,91.3
2017-03-25T08:34:54.990Z,91.5
2017-03-25T08:35:58.130Z,91.6
2017-03-25T08:37:00.468Z,91.7
2017-03-25T08:38:02.675Z,91.8
2017-03-25T08:40:08.334Z,91.9
2017-03-25T08:41:10.795Z,91.9
2017-03-25T08:42:13.637Z,92
2017-03-25T08:43:16.036Z,92.1
2017-03-25T08:44:18.744Z,92.1
2017-03-25T08:45:21.087Z,92.1
2017-03-25T08:46:24.231Z,92.2
2017-03-25T08:47:26.574Z,92.2
2017-03-25T08:48:29.420Z,92.3
2017-03-25T08:49:31.767Z,92.3
2017-03-25T08:50:34.614Z,92.3
2017-03-25T08:51:37.205Z,92.3
2017-03-25T08:52:39.552Z,92.4
2017-03-25T08:53:42.409Z,92.5
2017-03-25T08:54:44.766Z,92.5
2017-03-25T08:55:47.615Z,92.6
2017-03-25T08:56:51.270Z,92.7
2017-03-25T08:57:53.112Z,92.7
2017-03-25T08:58:55.515Z,92.7
2017-03-25T08:59:58.363Z,92.7
2017-03-25T09:01:00.707Z,92.7
2017-03-25T09:02:03.803Z,92.7
2017-03-25T09:03:06.146Z,92.7
2017-03-25T09:04:08.493Z,92.7
2017-03-25T09:05:11.341Z,92.6
2017-03-25T09:06:13.683Z,92.6
2017-03-25T09:07:17.346Z,92.6
2017-03-25T09:08:19.050Z,92.6
2017-03-25T09:09:21.904Z,92.6
2017-03-25T09:10:24.660Z,92.6
2017-03-25T09:11:27.004Z,92.6
2017-03-25T09:12:30.102Z,92.5
2017-03-25T09:13:32.444Z,92.5
2017-03-25T09:14:34.793Z,92.4
2017-03-25T09:15:37.643Z,92.4
2017-03-25T09:16:40.480Z,92.4
2017-03-25T09:17:43.645Z,92.3
2017-03-25T09:18:45.422Z,92.3
2017-03-25T09:19:48.131Z,92.3
2017-03-25T09:20:50.975Z,92.3
2017-03-25T09:21:53.319Z,92.3
2017-03-25T09:22:56.475Z,92.3
2017-03-25T09:23:58.696Z,92.3
2017-03-25T09:25:01.541Z,92.3
2017-03-25T09:26:03.885Z,92.3
2017-03-25T09:27:06.728Z,92.3
2017-03-25T09:28:09.316Z,92.3
2017-03-25T09:29:11.656Z,92.3
2017-03-25T09:30:14.543Z,92.3
2017-03-25T09:31:17.385Z,92.3
2017-03-25T09:32:19.725Z,92.3
2017-03-25T09:33:22.878Z,92.2
2017-03-25T09:34:25.225Z,92.2
2017-03-25T09:35:27.943Z,92.2
2017-03-25T09:36:30.146Z,92.3
2017-03-25T09:37:32.990Z,92.3
2017-03-25T09:38:36.150Z,92.3
2017-03-25T09:39:38.501Z,92.4
2017-03-25T09:40:40.709Z,92.4
2017-03-25T09:41:43.546Z,92.4
2017-03-25T09:42:46.387Z,92.5
2017-03-25T09:43:49.348Z,92.5
2017-03-25T09:44:51.688Z,92.5
2017-03-25T09:45:54.030Z,92.5
2017-03-25T09:46:56.875Z,92.5
2017-03-25T09:47:59.458Z,92.5
2017-03-25T09:49:03.166Z,92.5
2017-03-25T09:50:04.495Z,92.5
2017-03-25T09:51:07.335Z,92.5
2017-03-25T09:52:10.180Z,92.5
2017-03-25T09:53:12.518Z,92.4
2017-03-25T09:54:15.617Z,92.4
2017-03-25T09:55:17.960Z,92.4
2017-03-25T09:56:20.809Z,92.3
2017-03-25T09:57:23.150Z,92.3
2017-03-25T09:58:25.998Z,92.3
2017-03-25T09:59:28.590Z,92.2
2017-03-25T10:00:30.928Z,92.2
2017-03-25T10:01:33.766Z,92.1
2017-03-25T10:02:36.611Z,92
2017-03-25T10:03:38.956Z,92
2017-03-25T10:04:42.056Z,91.9
2017-03-25T10:05:44.394Z,91.9
2017-03-25T10:06:47.237Z,91.8
2017-03-25T10:07:49.587Z,91.8
2017-03-25T10:09:55.090Z,91.9
2017-03-25T10:10:57.430Z,91.9
2017-03-25T10:12:00.276Z,91.9
2017-03-25T10:13:03.122Z,91.9
2017-03-25T10:14:05.465Z,92
2017-03-25T10:15:08.425Z,92.1
2017-03-25T10:16:10.823Z,92.1
2017-03-25T10:17:13.665Z,92.2
2017-03-25T10:18:16.432Z,92.3
2017-03-25T10:19:18.776Z,92.3
2017-03-25T10:20:21.870Z,92.4
2017-03-25T10:21:24.077Z,92.4
2017-03-25T10:22:26.924Z,92.5
2017-03-25T10:23:29.307Z,92.5
2017-03-25T10:24:32.156Z,92.6
2017-03-25T10:25:35.113Z,92.6
2017-03-25T10:26:38.010Z,92.7
2017-03-25T10:27:40.349Z,92.7
2017-03-25T10:28:42.923Z,92.8
2017-03-25T10:29:45.500Z,92.9
2017-03-25T10:30:48.091Z,92.9
2017-03-25T10:31:50.931Z,92.9
2017-03-25T10:32:53.271Z,93
2017-03-25T10:33:56.172Z,93
2017-03-25T10:34:58.520Z,93
2017-03-25T10:36:01.480Z,93.1
2017-03-25T10:37:03.823Z,93.1
2017-03-25T10:38:06.665Z,93.1
2017-03-25T10:39:09.375Z,93.1
2017-03-25T10:40:12.085Z,93.1
2017-03-25T10:41:14.684Z,93.1
2017-03-25T10:42:17.022Z,93.1
2017-03-25T10:43:19.866Z,93.1
2017-03-25T10:44:22.214Z,93.2
2017-03-25T10:45:25.062Z,93.2
2017-03-25T10:46:28.234Z,93.2
2017-03-25T10:47:30.582Z,93.2
2017-03-25T10:48:01.215Z,93.2
2017-03-25T10:48:33.228Z,93.2
2017-03-25T10:49:35.441Z,93.2
2017-03-25T10:50:38.283Z,93.3
2017-03-25T10:51:41.382Z,93.3
2017-03-25T10:52:43.716Z,93.3
2017-03-25T10:53:46.058Z,93.3
2017-03-25T10:54:48.905Z,93.3
2017-03-25T10:55:51.666Z,93.3
2017-03-25T10:56:54.677Z,93.3
2017-03-25T10:57:57.014Z,93.3
2017-03-25T10:58:59.358Z,93.3
2017-03-25T11:00:02.202Z,93.3
2017-03-25T11:01:04.912Z,93.3
2017-03-25T11:02:07.510Z,93.3
2017-03-25T11:03:10.226Z,93.3
2017-03-25T11:04:12.569Z,93.3
2017-03-25T11:05:15.414Z,93.3
2017-03-25T11:06:18.260Z,93.3
2017-03-25T11:07:20.899Z,93.3
2017-03-25T11:08:23.246Z,93.3
2017-03-25T11:10:28.493Z,93.3
2017-03-25T11:11:31.206Z,93.3
2017-03-25T11:12:34.219Z,93.3
2017-03-25T11:13:36.430Z,93.3
2017-03-25T11:14:39.271Z,93.3
2017-03-25T11:15:42.120Z,93.3
2017-03-25T11:16:44.825Z,93.3
2017-03-25T11:17:47.466Z,93.3
2017-03-25T11:18:49.718Z,93.3
2017-03-25T11:19:52.570Z,93.3
2017-03-25T11:20:55.414Z,93.3
2017-03-25T11:21:57.619Z,93.3
2017-03-25T11:23:00.713Z,93.3
2017-03-25T11:24:03.057Z,93.3
2017-03-25T11:25:05.768Z,93.3
2017-03-25T11:26:08.613Z,93.3
2017-03-25T11:27:10.953Z,93.3
2017-03-25T11:28:14.054Z,93.3
2017-03-25T11:29:16.394Z,93.3
2017-03-25T11:30:19.103Z,93.2
2017-03-25T11:31:21.945Z,93.2
2017-03-25T11:32:24.283Z,93.3
2017-03-25T11:33:27.438Z,93.3
2017-03-25T11:34:29.777Z,93.3
2017-03-25T11:36:35.029Z,93.3
2017-03-25T11:37:37.876Z,93.3
2017-03-25T11:38:40.474Z,93.3
2017-03-25T11:39:43.191Z,93.3
2017-03-25T11:40:45.531Z,93.3
2017-03-25T11:41:48.371Z,93.3
2017-03-25T11:42:50.712Z,93.3
2017-03-25T11:43:53.813Z,93.3
2017-03-25T11:44:56.023Z,93.3
2017-03-25T11:45:58.864Z,93.3
2017-03-25T11:47:01.706Z,93.3
2017-03-25T11:48:04.082Z,93.3
2017-03-25T11:49:07.047Z,93.3
2017-03-25T11:50:09.256Z,93.3
2017-03-25T11:51:11.968Z,93.3
2017-03-25T11:52:14.807Z,93.3
2017-03-25T11:53:17.658Z,93.3
2017-03-25T11:54:20.254Z,93.3
2017-03-25T11:55:22.609Z,93.3
2017-03-25T11:56:25.321Z,93.3
2017-03-25T11:57:28.169Z,93.3
2017-03-25T11:58:31.021Z,93.3
2017-03-25T11:59:33.618Z,93.3
2017-03-25T12:00:35.960Z,93.3
2017-03-25T12:01:38.812Z,93.3
2017-03-25T12:02:41.659Z,93.3
2017-03-25T12:03:44.000Z,93.3
2017-03-25T12:04:47.102Z,93.3
2017-03-25T12:05:49.441Z,93.3
2017-03-25T12:06:52.289Z,93.3
2017-03-25T12:07:54.631Z,93.3
2017-03-25T12:08:57.474Z,93.4
2017-03-25T12:10:01.183Z,93.4
2017-03-25T12:11:02.524Z,93.4
2017-03-25T12:12:05.367Z,93.4
2017-03-25T12:14:10.983Z,93.4
2017-03-25T12:15:13.443Z,93.4
2017-03-25T12:16:16.289Z,93.5
2017-03-25T12:17:18.633Z,93.5
2017-03-25T12:18:21.480Z,93.4
2017-03-25T12:19:23.823Z,93.5
2017-03-25T12:20:26.976Z,93.5
2017-03-25T12:21:29.318Z,93.4
2017-03-25T12:22:32.158Z,93.4
2017-03-25T12:23:34.502Z,93.4
2017-03-25T12:24:37.216Z,93.5
2017-03-25T12:25:40.313Z,93.5
2017-03-25T12:26:42.522Z,93.5
2017-03-25T12:27:45.372Z,93.5
2017-03-25T12:28:48.222Z,93.5
2017-03-25T12:30:53.732Z,93.5
2017-03-25T12:31:56.075Z,93.5
2017-03-25T12:32:58.924Z,93.5
2017-03-25T12:34:01.271Z,93.5
2017-03-25T12:35:04.115Z,93.5
2017-03-25T12:36:06.706Z,93.6
2017-03-25T12:37:09.564Z,93.6
2017-03-25T12:38:11.902Z,93.5
2017-03-25T12:39:14.752Z,93.5
2017-03-25T12:40:17.597Z,93.6
2017-03-25T12:41:20.064Z,93.6
2017-03-25T12:42:22.909Z,93.6
2017-03-25T12:43:25.252Z,93.6
2017-03-25T12:44:28.103Z,93.6
2017-03-25T12:45:30.454Z,93.6
2017-03-25T12:46:33.553Z,93.6
2017-03-25T12:47:36.275Z,93.7
2017-03-25T12:48:38.620Z,93.7
2017-03-25T12:49:41.466Z,93.6
2017-03-25T12:50:43.672Z,93.6
2017-03-25T12:52:49.726Z,93.6
2017-03-25T12:53:52.077Z,93.6
2017-03-25T12:54:54.929Z,93.6
2017-03-25T12:55:57.332Z,93.6
2017-03-25T12:57:00.175Z,93.6
2017-03-25T12:58:02.766Z,93.6
2017-03-25T12:59:05.115Z,93.6
2017-03-25T13:00:07.961Z,93.6
2017-03-25T13:01:10.813Z,93.6
2017-03-25T13:02:13.158Z,93.6
2017-03-25T13:03:16.303Z,93.6
2017-03-25T13:04:18.522Z,93.6
2017-03-25T13:06:23.779Z,93.6
2017-03-25T13:07:26.489Z,93.6
2017-03-25T13:08:29.585Z,93.6
2017-03-25T13:09:31.926Z,93.6
2017-03-25T13:10:34.769Z,93.6
2017-03-25T13:11:37.114Z,93.6
2017-03-25T13:12:39.960Z,93.6
2017-03-25T13:13:43.056Z,93.6
2017-03-25T13:14:45.264Z,93.6
2017-03-25T13:15:48.107Z,93.6
2017-03-25T13:16:50.453Z,93.7
2017-03-25T13:17:53.302Z,93.7
2017-03-25T13:18:56.323Z,93.7
2017-03-25T13:19:58.530Z,93.7
2017-03-25T13:21:01.107Z,93.7
2017-03-25T13:22:04.010Z,93.7
2017-03-25T13:23:06.852Z,93.7
2017-03-25T13:24:09.317Z,93.6
2017-03-25T13:25:12.163Z,93.6
2017-03-25T13:26:14.500Z,93.7
2017-03-25T13:27:17.346Z,93.7
2017-03-25T13:28:20.207Z,93.7
2017-03-25T13:29:22.896Z,93.7
2017-03-25T13:30:25.235Z,93.7
2017-03-25T13:31:28.078Z,93.7
2017-03-25T13:32:30.924Z,93.7
2017-03-25T13:33:33.265Z,93.7
2017-03-25T13:34:36.362Z,93.7
2017-03-25T13:35:38.747Z,93.8
2017-03-25T13:36:41.589Z,93.8
2017-03-25T13:37:43.934Z,93.7
2017-03-25T13:38:46.787Z,93.7
2017-03-25T13:39:49.879Z,93.7
2017-03-25T13:40:52.219Z,93.7
2017-03-25T13:41:54.559Z,93.7
2017-03-25T13:42:57.278Z,93.7
2017-03-25T13:44:00.128Z,93.7
2017-03-25T13:45:03.098Z,93.8
2017-03-25T13:46:05.441Z,93.8
2017-03-25T13:47:08.156Z,93.8
2017-03-25T13:48:11.005Z,93.8
2017-03-25T13:50:16.510Z,93.8
2017-03-25T13:51:18.856Z,93.8
2017-03-25T13:52:21.193Z,93.8
2017-03-25T13:53:24.039Z,93.8
2017-03-25T13:54:26.886Z,93.8
2017-03-25T13:55:29.483Z,93.8
2017-03-25T13:56:32.329Z,93.8
2017-03-25T13:57:34.671Z,93.8
2017-03-25T13:58:37.520Z,93.8
2017-03-25T13:59:40.367Z,93.8
2017-03-25T14:00:43.013Z,93.8
2017-03-25T14:01:45.352Z,93.9
2017-03-25T14:03:50.601Z,93.9
2017-03-25T14:04:53.449Z,93.9
2017-03-25T14:05:56.542Z,93.9
2017-03-25T14:06:58.889Z,93.9
2017-03-25T14:08:01.740Z,93.9
2017-03-25T14:09:04.091Z,93.9
2017-03-25T14:10:06.941Z,93.9
2017-03-25T14:11:09.597Z,93.9
2017-03-25T14:12:12.441Z,93.9
2017-03-25T14:13:14.788Z,93.8
2017-03-25T14:14:17.639Z,93.8
2017-03-25T14:15:20.355Z,93.8
2017-03-25T14:16:22.945Z,93.8
2017-03-25T14:17:25.699Z,93.9
2017-03-25T14:18:28.043Z,93.9
2017-03-25T14:19:30.892Z,93.9